Time;durP1;ratioP1;P1;durP2;ratioP2;P2;SDS_P1;SDS_P2;PMS_P1;PMS_P2;Temp;Humidity;BMP_temperature;BMP_pressure;BME280_temperature;BME280_humidity;BME280_pressure;Samples;Min_cycle;Max_cycle;Signal;HPM_P1;HPM_P2
2023/05/12 00:01:40;;;;;;;3.25;2.85;;;8.20;99.90;;;;;;5057344;28;20035;-72
2023/05/12 00:04:06;;;;;;;4.72;3.47;;;8.20;99.90;;;;;;5057832;28;20036;-72
2023/05/12 00:06:32;;;;;;;5.93;4.00;;;8.20;99.90;;;;;;5041108;28;20067;-72
2023/05/12 00:08:58;;;;;;;8.02;3.53;;;8.20;99.90;;;;;;5068291;28;20491;-72
2023/05/12 00:11:24;;;;;;;5.18;3.45;;;8.20;99.90;;;;;;5044955;28;20043;-70
2023/05/12 00:13:49;;;;;;;4.28;3.03;;;8.20;99.90;;;;;;5027033;28;20025;-71
2023/05/12 00:16:17;;;;;;;3.58;2.90;;;8.20;99.90;;;;;;5050731;28;20032;-71
2023/05/12 00:18:43;;;;;;;3.33;2.80;;;8.10;99.90;;;;;;5041403;28;20109;-71
2023/05/12 00:21:11;;;;;;;2.45;2.25;;;8.10;99.90;;;;;;5057327;28;20027;-71
2023/05/12 00:23:37;;;;;;;2.53;2.20;;;8.00;99.90;;;;;;5072084;28;20035;-71
2023/05/12 00:26:03;;;;;;;3.30;2.80;;;8.00;99.90;;;;;;5074013;28;20031;-71
2023/05/12 00:28:28;;;;;;;3.97;3.10;;;8.00;99.90;;;;;;5046856;28;20024;-71
2023/05/12 00:30:55;;;;;;;3.45;3.10;;;7.90;99.90;;;;;;5056701;28;20033;-71
2023/05/12 00:33:20;;;;;;;4.13;2.70;;;7.90;99.90;;;;;;5056367;28;20144;-71
2023/05/12 00:35:46;;;;;;;3.90;2.80;;;7.90;99.90;;;;;;5054300;28;20109;-71
2023/05/12 00:38:12;;;;;;;5.57;2.92;;;7.80;99.90;;;;;;5075181;28;20036;-71
2023/05/12 00:40:38;;;;;;;3.78;3.38;;;7.80;99.90;;;;;;5056496;28;20024;-71
2023/05/12 00:43:04;;;;;;;4.13;3.33;;;7.90;99.90;;;;;;5046365;28;20037;-71
2023/05/12 00:45:30;;;;;;;4.57;3.28;;;7.80;99.90;;;;;;5054213;28;20641;-71
2023/05/12 00:47:56;;;;;;;5.25;3.72;;;7.80;99.90;;;;;;5039905;28;20106;-71
2023/05/12 00:50:22;;;;;;;3.80;3.10;;;7.80;99.90;;;;;;5044602;28;20046;-71
2023/05/12 00:52:48;;;;;;;4.57;3.00;;;7.80;99.90;;;;;;5064441;28;20028;-71
2023/05/12 00:55:14;;;;;;;4.63;2.55;;;7.80;99.90;;;;;;5051832;28;20084;-71
2023/05/12 00:57:41;;;;;;;2.85;2.55;;;7.80;99.90;;;;;;5038027;28;20060;-71
2023/05/12 01:00:07;;;;;;;3.30;2.22;;;7.80;99.90;;;;;;5035813;28;20971;-71
2023/05/12 01:02:33;;;;;;;4.05;2.20;;;7.70;99.90;;;;;;5051461;28;20028;-71
2023/05/12 01:04:59;;;;;;;2.90;2.40;;;7.60;99.90;;;;;;5054301;28;20082;-71
2023/05/12 01:07:26;;;;;;;6.80;3.67;;;7.60;99.90;;;;;;5071617;28;20362;-71
2023/05/12 01:09:55;;;;;;;4.95;3.92;;;7.60;99.90;;;;;;5053240;28;20040;-71
2023/05/12 01:12:22;;;;;;;5.97;4.18;;;7.50;99.90;;;;;;5041468;28;20021;-71
2023/05/12 01:14:50;;;;;;;5.45;3.97;;;7.60;99.90;;;;;;5053812;28;20036;-72
2023/05/12 01:17:20;;;;;;;7.10;4.80;;;7.50;99.90;;;;;;5054059;28;20344;-71
2023/05/12 01:19:55;;;;;;;6.90;5.10;;;7.60;99.90;;;;;;5054423;28;20061;-72
2023/05/12 01:22:21;;;;;;;8.57;6.05;;;7.60;99.90;;;;;;5075965;28;20116;-71
2023/05/12 01:25:08;;;;;;;6.40;4.88;;;7.60;99.90;;;;;;5076155;28;20467;-72
2023/05/12 01:27:35;;;;;;;9.40;6.00;;;7.60;99.90;;;;;;5081588;28;20016;-72
2023/05/12 01:30:03;;;;;;;6.63;5.20;;;7.60;99.90;;;;;;5058623;28;20052;-72
2023/05/12 01:32:29;;;;;;;9.07;5.63;;;7.70;99.90;;;;;;5039864;28;20750;-72
2023/05/12 01:34:55;;;;;;;8.95;6.20;;;7.70;99.90;;;;;;5057448;28;20251;-71
2023/05/12 01:37:21;;;;;;;8.77;6.55;;;7.70;99.90;;;;;;5056124;28;20513;-71
2023/05/12 01:39:46;;;;;;;9.05;6.40;;;7.70;99.90;;;;;;5049426;28;20060;-72
2023/05/12 01:42:12;;;;;;;9.50;6.65;;;7.70;99.90;;;;;;5040683;28;20503;-72
2023/05/12 01:44:38;;;;;;;11.32;7.00;;;7.80;99.90;;;;;;5044306;28;20408;-72
2023/05/12 01:47:04;;;;;;;11.77;7.88;;;7.70;99.90;;;;;;5043405;28;20139;-72
2023/05/12 01:49:30;;;;;;;12.13;7.72;;;7.80;99.90;;;;;;5040029;28;20031;-72
2023/05/12 01:51:55;;;;;;;13.95;8.75;;;7.80;99.90;;;;;;5051983;28;20044;-72
2023/05/12 01:54:21;;;;;;;13.98;8.43;;;7.90;99.90;;;;;;5056480;28;20029;-72
2023/05/12 01:56:46;;;;;;;17.02;10.05;;;7.90;99.90;;;;;;5055549;28;20150;-72
2023/05/12 01:59:12;;;;;;;9.15;5.28;;;7.90;99.90;;;;;;5049534;28;20496;-72
2023/05/12 02:01:38;;;;;;;8.40;5.25;;;7.90;99.90;;;;;;5045911;28;20113;-72
2023/05/12 02:04:04;;;;;;;7.18;4.90;;;7.80;99.90;;;;;;5055262;28;20063;-72
2023/05/12 02:06:31;;;;;;;10.82;5.75;;;7.80;99.90;;;;;;5056505;28;20331;-72
2023/05/12 02:08:57;;;;;;;8.93;6.13;;;7.70;99.90;;;;;;5062028;28;20029;-72
2023/05/12 02:11:22;;;;;;;10.13;7.22;;;7.70;99.90;;;;;;5055461;28;20034;-71
2023/05/12 02:13:48;;;;;;;11.40;8.10;;;7.70;99.90;;;;;;5043957;28;20036;-71
2023/05/12 02:16:14;;;;;;;11.95;7.75;;;7.70;99.90;;;;;;5055390;28;20234;-71
2023/05/12 02:18:39;;;;;;;14.75;9.00;;;7.60;99.90;;;;;;5056539;28;20463;-71
2023/05/12 02:21:05;;;;;;;13.43;8.30;;;7.70;99.90;;;;;;5054798;28;20460;-71
2023/05/12 02:23:31;;;;;;;16.38;9.00;;;7.70;99.90;;;;;;5054800;28;20039;-72
2023/05/12 02:25:57;;;;;;;16.42;9.05;;;7.70;99.90;;;;;;5041150;28;20033;-71
2023/05/12 02:28:22;;;;;;;15.10;9.57;;;7.70;99.90;;;;;;5044284;28;20348;-72
2023/05/12 02:30:49;;;;;;;16.92;9.93;;;7.70;99.90;;;;;;5049736;28;20359;-72
2023/05/12 02:33:16;;;;;;;18.27;10.02;;;7.80;99.90;;;;;;5054927;28;20032;-71
2023/05/12 02:35:43;;;;;;;16.15;11.00;;;7.80;99.90;;;;;;5057837;28;20133;-72
2023/05/12 02:38:09;;;;;;;18.63;10.98;;;7.80;99.90;;;;;;5055056;28;20478;-72
2023/05/12 02:40:35;;;;;;;17.52;10.57;;;7.80;99.90;;;;;;5036696;28;20503;-72
2023/05/12 02:43:00;;;;;;;20.73;12.32;;;7.80;99.90;;;;;;5055558;28;20163;-71
2023/05/12 02:45:26;;;;;;;30.45;14.85;;;8.00;99.90;;;;;;5043312;28;20024;-71
2023/05/12 02:47:52;;;;;;;29.55;13.98;;;8.10;99.90;;;;;;5056866;28;20028;-71
2023/05/12 02:50:19;;;;;;;31.45;15.07;;;8.30;99.90;;;;;;5051575;28;20041;-71
2023/05/12 02:52:45;;;;;;;29.83;15.48;;;8.40;99.90;;;;;;5018081;28;20032;-72
2023/05/12 02:55:10;;;;;;;32.30;17.40;;;8.50;99.90;;;;;;5056193;28;20031;-72
2023/05/12 02:57:36;;;;;;;35.45;17.13;;;8.70;99.90;;;;;;5076045;28;20084;-72
2023/05/12 03:00:06;;;;;;;43.28;19.60;;;8.80;99.90;;;;;;5063511;28;20028;-72
2023/05/12 03:02:32;;;;;;;56.70;22.77;;;9.00;99.90;;;;;;5032485;28;20483;-72
2023/05/12 03:04:58;;;;;;;53.03;21.48;;;9.20;99.90;;;;;;5055684;28;20040;-72
2023/05/12 03:07:24;;;;;;;53.40;22.52;;;9.40;99.90;;;;;;5055957;28;20037;-72
2023/05/12 03:09:49;;;;;;;51.45;22.77;;;9.50;99.90;;;;;;5061239;28;20049;-72
2023/05/12 03:12:15;;;;;;;57.60;25.70;;;9.70;99.90;;;;;;5035240;28;20661;-72
2023/05/12 03:14:41;;;;;;;59.78;26.80;;;9.80;99.90;;;;;;5040338;28;20025;-72
2023/05/12 03:17:06;;;;;;;57.15;25.20;;;10.00;99.90;;;;;;5033823;28;20101;-72
2023/05/12 03:19:32;;;;;;;57.80;24.05;;;10.10;99.90;;;;;;5055453;28;20447;-71
2023/05/12 03:21:58;;;;;;;48.95;23.30;;;10.10;99.90;;;;;;5054249;28;20611;-72
2023/05/12 03:24:23;;;;;;;54.53;22.98;;;10.20;99.90;;;;;;5071866;28;20488;-71
2023/05/12 03:26:49;;;;;;;47.88;23.23;;;10.30;99.90;;;;;;5063225;28;20051;-72
2023/05/12 03:29:14;;;;;;;47.83;22.63;;;10.40;99.90;;;;;;5075039;28;20024;-72
2023/05/12 03:31:40;;;;;;;52.10;24.17;;;10.40;99.90;;;;;;5062719;28;20044;-72
2023/05/12 03:34:06;;;;;;;47.40;22.27;;;10.40;99.90;;;;;;5053310;28;20131;-72
2023/05/12 03:36:31;;;;;;;46.00;24.08;;;10.40;99.90;;;;;;5027135;28;20495;-72
2023/05/12 03:38:57;;;;;;;51.17;24.90;;;10.40;99.90;;;;;;5039107;28;20263;-72
2023/05/12 03:41:22;;;;;;;47.67;23.65;;;10.50;99.90;;;;;;5044759;28;20036;-72
2023/05/12 03:43:48;;;;;;;50.35;25.58;;;10.50;99.90;;;;;;5055054;28;20051;-71
2023/05/12 03:46:14;;;;;;;42.92;22.58;;;10.50;99.90;;;;;;5055318;28;20127;-72
2023/05/12 03:48:39;;;;;;;41.55;23.60;;;10.60;99.90;;;;;;5054946;28;20036;-72
2023/05/12 03:51:05;;;;;;;47.67;25.30;;;10.60;99.90;;;;;;5047147;28;20027;-72
2023/05/12 03:53:31;;;;;;;40.10;23.60;;;10.60;99.90;;;;;;5046523;28;20737;-72
2023/05/12 03:55:56;;;;;;;42.40;23.35;;;10.60;99.90;;;;;;5056353;28;20520;-72
2023/05/12 03:58:23;;;;;;;40.00;22.48;;;10.60;99.90;;;;;;5076011;28;20032;-71
2023/05/12 04:00:49;;;;;;;44.03;22.95;;;10.50;99.90;;;;;;5075628;28;20036;-71
2023/05/12 04:03:15;;;;;;;46.10;23.73;;;10.50;99.90;;;;;;5033669;28;20151;-73
2023/05/12 04:05:41;;;;;;;42.55;24.25;;;10.50;99.90;;;;;;5055112;28;20479;-72
2023/05/12 04:08:07;;;;;;;38.45;23.08;;;10.60;99.90;;;;;;5054844;28;20046;-72
2023/05/12 04:10:39;;;;;;;36.42;23.50;;;10.70;99.90;;;;;;5060898;28;20039;-72
2023/05/12 04:13:05;;;;;;;39.20;23.35;;;10.70;99.90;;;;;;5061240;28;20468;-72
2023/05/12 04:15:31;;;;;;;42.92;23.42;;;10.70;99.90;;;;;;5037520;28;20056;-72
2023/05/12 04:17:56;;;;;;;38.92;23.23;;;10.80;99.90;;;;;;5052472;28;20028;-72
2023/05/12 04:20:22;;;;;;;32.85;22.13;;;10.70;99.90;;;;;;5054316;28;20117;-72
2023/05/12 04:22:49;;;;;;;33.50;21.73;;;10.80;99.90;;;;;;5053096;28;20032;-71
2023/05/12 04:25:15;;;;;;;32.50;22.23;;;10.80;99.90;;;;;;5061619;28;20036;-72
2023/05/12 04:27:40;;;;;;;33.78;22.85;;;10.80;99.90;;;;;;5060385;28;20024;-72
2023/05/12 04:30:07;;;;;;;38.97;22.67;;;10.70;99.90;;;;;;5073636;28;20058;-72
2023/05/12 04:32:32;;;;;;;36.13;21.90;;;10.70;99.90;;;;;;5053496;28;20454;-72
2023/05/12 04:34:58;;;;;;;38.08;23.23;;;10.70;99.90;;;;;;5048530;28;20024;-72
2023/05/12 04:37:23;;;;;;;35.78;21.90;;;10.70;99.90;;;;;;5016110;28;20032;-71
2023/05/12 04:39:49;;;;;;;36.47;21.90;;;10.80;99.90;;;;;;5042814;28;20499;-71
2023/05/12 04:42:15;;;;;;;35.72;22.48;;;10.80;99.90;;;;;;5041473;28;20023;-72
2023/05/12 04:44:40;;;;;;;34.03;21.60;;;10.90;99.90;;;;;;5061346;28;20033;-72
2023/05/12 04:47:06;;;;;;;37.70;22.35;;;11.00;99.90;;;;;;5053926;28;20522;-71
2023/05/12 04:49:32;;;;;;;41.60;22.50;;;10.90;99.90;;;;;;5052245;28;20023;-72
2023/05/12 04:51:57;;;;;;;38.80;21.98;;;10.90;99.90;;;;;;5035881;28;20116;-72
2023/05/12 04:54:23;;;;;;;43.85;21.25;;;10.80;99.90;;;;;;5034646;28;20029;-72
2023/05/12 04:56:49;;;;;;;37.42;20.88;;;10.70;99.90;;;;;;5033988;28;20559;-72
2023/05/12 04:59:14;;;;;;;46.53;22.05;;;10.80;99.90;;;;;;5049863;28;20052;-72
2023/05/12 05:01:41;;;;;;;43.92;21.38;;;10.70;99.90;;;;;;5051196;28;20028;-71
2023/05/12 05:04:07;;;;;;;51.17;21.83;;;10.70;99.90;;;;;;5037268;28;20531;-72
2023/05/12 05:06:33;;;;;;;47.17;21.10;;;10.70;99.90;;;;;;5038448;28;20506;-71
2023/05/12 05:08:59;;;;;;;49.00;22.33;;;10.70;99.90;;;;;;5054081;28;20036;-72
2023/05/12 05:11:25;;;;;;;48.17;21.50;;;10.70;99.90;;;;;;5053472;28;20021;-72
2023/05/12 05:13:50;;;;;;;45.97;20.38;;;10.60;99.90;;;;;;5053821;28;20111;-71
2023/05/12 05:16:16;;;;;;;50.83;22.35;;;10.70;99.90;;;;;;5038678;28;20035;-71
2023/05/12 05:18:45;;;;;;;49.63;21.40;;;10.60;99.90;;;;;;5047143;28;20025;-71
2023/05/12 05:21:14;;;;;;;45.70;21.15;;;10.60;99.90;;;;;;5052919;28;20112;-71
2023/05/12 05:23:41;;;;;;;48.20;21.00;;;10.70;99.90;;;;;;5053570;28;20033;-71
2023/05/12 05:26:07;;;;;;;50.92;20.45;;;10.70;99.90;;;;;;5031707;28;20202;-72
2023/05/12 05:28:34;;;;;;;42.78;19.08;;;10.60;99.90;;;;;;5016722;28;20901;-72
2023/05/12 05:30:59;;;;;;;42.17;20.52;;;10.60;99.90;;;;;;5044422;28;20039;-71
2023/05/12 05:33:25;;;;;;;43.83;18.63;;;10.60;99.90;;;;;;5054612;28;20478;-72
2023/05/12 05:35:51;;;;;;;39.67;17.48;;;10.70;99.90;;;;;;5053542;28;20555;-72
2023/05/12 05:38:16;;;;;;;41.10;17.88;;;10.70;99.90;;;;;;5053318;28;20035;-72
2023/05/12 05:40:42;;;;;;;41.95;17.67;;;10.80;99.90;;;;;;5018625;28;20090;-71
2023/05/12 05:43:08;;;;;;;37.50;16.77;;;10.70;99.90;;;;;;5034038;28;20131;-72
2023/05/12 05:45:34;;;;;;;39.25;16.52;;;10.80;99.90;;;;;;5060424;28;20028;-72
2023/05/12 05:48:00;;;;;;;39.05;17.33;;;10.90;99.90;;;;;;5021504;28;20033;-72
2023/05/12 05:50:26;;;;;;;36.30;17.20;;;11.00;99.90;;;;;;5035162;28;20433;-72
2023/05/12 05:52:53;;;;;;;37.67;17.20;;;11.10;99.90;;;;;;5053291;28;20036;-72
2023/05/12 05:55:20;;;;;;;34.50;16.08;;;11.20;99.90;;;;;;5039103;28;20126;-72
2023/05/12 05:57:46;;;;;;;32.80;15.85;;;11.20;99.90;;;;;;5051556;28;20086;-71
2023/05/12 06:00:13;;;;;;;37.97;15.23;;;11.40;99.90;;;;;;5063143;28;20200;-72
2023/05/12 06:02:42;;;;;;;33.38;14.55;;;11.50;99.90;;;;;;5057079;28;20115;-72
2023/05/12 06:05:08;;;;;;;32.20;15.05;;;11.60;99.90;;;;;;5046890;28;20238;-72
2023/05/12 06:07:34;;;;;;;48.58;23.17;;;11.80;99.90;;;;;;5050700;28;20392;-72
2023/05/12 06:09:59;;;;;;;36.58;16.65;;;11.90;99.90;;;;;;5055534;28;20127;-71
2023/05/12 06:12:25;;;;;;;28.92;14.50;;;12.10;99.90;;;;;;5044099;28;20408;-72
2023/05/12 06:14:51;;;;;;;31.63;14.52;;;12.10;99.90;;;;;;5055531;28;20053;-71
2023/05/12 06:17:16;;;;;;;29.67;15.73;;;12.10;99.90;;;;;;5027673;28;20127;-72
2023/05/12 06:19:46;;;;;;;28.75;14.82;;;12.10;99.90;;;;;;5055352;28;20035;-72
2023/05/12 06:22:13;;;;;;;28.58;13.25;;;12.00;99.90;;;;;;5051999;28;20438;-72
2023/05/12 06:24:39;;;;;;;24.35;12.25;;;12.00;99.90;;;;;;5059644;28;20043;-71
2023/05/12 06:27:05;;;;;;;28.15;12.77;;;12.00;99.90;;;;;;5057361;28;20025;-71
2023/05/12 06:29:30;;;;;;;23.95;11.43;;;12.10;99.90;;;;;;5052072;28;20020;-72
2023/05/12 06:31:56;;;;;;;25.88;11.90;;;12.20;99.90;;;;;;5066788;28;20047;-72
2023/05/12 06:34:22;;;;;;;23.77;11.82;;;12.20;99.90;;;;;;5048866;28;20020;-72
2023/05/12 06:36:47;;;;;;;20.85;11.35;;;12.30;99.90;;;;;;5075067;28;20036;-72
2023/05/12 06:39:13;;;;;;;18.55;10.38;;;12.20;99.90;;;;;;5062486;28;20332;-72
2023/05/12 06:41:39;;;;;;;22.77;11.50;;;12.20;99.90;;;;;;5036770;28;20036;-72
2023/05/12 06:44:05;;;;;;;20.40;10.20;;;12.20;99.90;;;;;;5049844;28;20469;-72
2023/05/12 06:46:31;;;;;;;18.05;9.82;;;12.00;99.90;;;;;;5047699;28;20373;-72
2023/05/12 06:48:57;;;;;;;16.58;9.55;;;12.00;99.90;;;;;;5031452;28;20041;-72
2023/05/12 06:51:22;;;;;;;21.70;9.73;;;12.00;99.90;;;;;;5050543;28;20154;-72
2023/05/12 06:53:48;;;;;;;20.98;9.27;;;12.20;99.90;;;;;;5064886;28;20036;-72
2023/05/12 06:56:15;;;;;;;19.08;9.70;;;12.40;99.90;;;;;;5056732;28;20039;-72
2023/05/12 06:58:43;;;;;;;18.95;9.73;;;12.50;99.90;;;;;;5050800;28;20507;-72
2023/05/12 07:01:09;;;;;;;19.50;9.57;;;12.40;99.90;;;;;;5046860;28;20044;-72
2023/05/12 07:03:35;;;;;;;16.85;9.35;;;12.70;99.90;;;;;;5044769;28;20530;-72
2023/05/12 07:06:00;;;;;;;20.10;9.15;;;12.80;99.90;;;;;;5059391;28;20031;-72
2023/05/12 07:08:26;;;;;;;15.32;9.13;;;13.00;99.90;;;;;;5045636;28;20035;-72
2023/05/12 07:10:52;;;;;;;15.95;8.82;;;12.90;99.90;;;;;;5038154;28;20020;-72
2023/05/12 07:13:18;;;;;;;14.85;8.60;;;13.00;99.90;;;;;;5047132;28;20028;-72
2023/05/12 07:15:43;;;;;;;16.17;8.57;;;13.10;99.90;;;;;;5035731;28;20080;-72
2023/05/12 07:18:09;;;;;;;13.68;7.95;;;13.00;99.90;;;;;;5053804;28;20499;-72
2023/05/12 07:20:34;;;;;;;13.00;8.02;;;13.10;99.90;;;;;;5056193;28;20032;-72
2023/05/12 07:23:00;;;;;;;12.98;8.18;;;13.20;99.90;;;;;;5069064;28;20035;-72
2023/05/12 07:25:27;;;;;;;16.05;9.23;;;13.40;99.90;;;;;;5034359;28;20078;-72
2023/05/12 07:27:52;;;;;;;15.10;8.30;;;13.50;99.90;;;;;;5053251;28;20040;-72
2023/05/12 07:30:19;;;;;;;12.30;8.20;;;13.70;99.90;;;;;;5048593;28;20023;-72
2023/05/12 07:32:45;;;;;;;14.55;8.32;;;13.60;99.90;;;;;;5040810;28;20043;-72
2023/05/12 07:35:11;;;;;;;13.35;7.97;;;13.50;99.90;;;;;;5038246;28;20488;-72
2023/05/12 07:37:37;;;;;;;14.52;8.23;;;13.70;99.90;;;;;;5020077;28;20150;-72
2023/05/12 07:40:03;;;;;;;13.65;7.53;;;14.00;99.90;;;;;;5023155;28;20032;-72
2023/05/12 07:42:29;;;;;;;13.38;7.82;;;14.60;99.90;;;;;;5040224;28;20035;-72
2023/05/12 07:44:55;;;;;;;13.20;7.47;;;15.20;99.90;;;;;;5044952;28;20040;-72
2023/05/12 07:47:20;;;;;;;11.95;6.93;;;16.10;99.90;;;;;;5068333;28;20039;-72
2023/05/12 07:49:46;;;;;;;11.25;7.13;;;16.60;99.90;;;;;;5049204;28;20135;-72
2023/05/12 07:52:11;;;;;;;11.73;7.05;;;16.40;99.90;;;;;;5048186;28;20032;-72
2023/05/12 07:54:37;;;;;;;10.85;6.72;;;16.10;99.90;;;;;;5045946;28;20543;-72
2023/05/12 07:57:03;;;;;;;11.32;7.13;;;15.80;99.90;;;;;;5045328;28;20052;-72
2023/05/12 07:59:29;;;;;;;9.32;6.88;;;15.90;99.90;;;;;;5049400;28;20024;-72
2023/05/12 08:01:54;;;;;;;12.10;7.40;;;15.90;99.90;;;;;;5047370;28;20024;-72
2023/05/12 08:04:20;;;;;;;11.95;7.00;;;15.90;99.90;;;;;;5035325;28;20048;-72
2023/05/12 08:06:45;;;;;;;9.23;6.43;;;16.60;99.90;;;;;;5028517;28;20068;-71
2023/05/12 08:09:11;;;;;;;12.07;6.72;;;16.80;99.90;;;;;;5047544;28;20115;-72
2023/05/12 08:11:37;;;;;;;14.40;6.80;;;17.10;99.90;;;;;;5039924;28;20048;-71
2023/05/12 08:14:02;;;;;;;13.90;6.50;;;17.00;99.90;;;;;;5038830;28;20122;-72
2023/05/12 08:16:28;;;;;;;9.63;5.93;;;16.70;99.90;;;;;;5039104;28;20033;-72
2023/05/12 08:18:54;;;;;;;10.52;6.22;;;16.60;99.90;;;;;;5044450;28;20032;-72
2023/05/12 08:21:20;;;;;;;11.32;5.95;;;16.40;99.90;;;;;;5043029;28;20525;-72
2023/05/12 08:23:45;;;;;;;10.35;5.85;;;16.30;99.90;;;;;;5040616;28;20407;-72
2023/05/12 08:26:11;;;;;;;10.10;5.47;;;16.60;99.90;;;;;;5037105;28;20286;-72
2023/05/12 08:28:36;;;;;;;9.70;5.47;;;17.50;99.90;;;;;;5020871;28;20066;-72
2023/05/12 08:31:02;;;;;;;11.60;4.40;;;18.50;99.90;;;;;;5046866;28;20098;-72
2023/05/12 08:33:28;;;;;;;8.63;3.88;;;20.20;95.70;;;;;;5048214;28;20044;-72
2023/05/12 08:35:54;;;;;;;7.63;3.60;;;21.40;90.80;;;;;;5048669;28;20410;-72
2023/05/12 08:38:20;;;;;;;7.10;3.72;;;21.60;69.00;;;;;;5024763;28;20451;-76
2023/05/12 08:41:04;;;;;;;5.03;2.97;;;21.70;83.50;;;;;;5051194;28;20032;-73
2023/05/12 08:43:41;;;;;;;7.82;3.38;;;21.50;69.90;;;;;;5043813;28;20115;-73
2023/05/12 08:46:07;;;;;;;6.03;2.88;;;20.90;77.10;;;;;;5050584;28;20048;-71
2023/05/12 08:48:34;;;;;;;7.40;3.28;;;20.20;77.90;;;;;;5048147;28;20363;-71
2023/05/12 08:51:01;;;;;;;8.23;3.50;;;20.30;89.00;;;;;;5047299;28;20033;-71
2023/05/12 08:53:28;;;;;;;5.35;2.70;;;20.10;78.20;;;;;;5056032;28;20028;-72
2023/05/12 08:55:56;;;;;;;7.20;2.60;;;20.50;83.00;;;;;;5048933;28;20453;-71
2023/05/12 08:58:23;;;;;;;6.50;2.80;;;22.00;71.80;;;;;;5060975;28;20059;-72
2023/05/12 09:00:50;;;;;;;5.75;2.10;;;23.40;63.40;;;;;;5050243;28;20488;-72
2023/05/12 09:03:18;;;;;;;4.40;2.08;;;23.10;58.70;;;;;;5052292;28;20413;-72
2023/05/12 09:05:45;;;;;;;6.82;2.17;;;23.20;55.70;;;;;;5063362;28;20037;-71
2023/05/12 09:08:11;;;;;;;6.90;2.20;;;24.70;48.30;;;;;;5051145;28;20115;-72
2023/05/12 09:10:38;;;;;;;3.72;1.90;;;24.30;48.10;;;;;;5051731;28;20067;-71
2023/05/12 09:13:14;;;;;;;7.95;2.22;;;23.70;50.90;;;;;;5049021;28;20032;-71
2023/05/12 09:15:43;;;;;;;5.13;1.77;;;23.40;50.80;;;;;;5046867;28;20111;-71
2023/05/12 09:18:09;;;;;;;5.20;1.73;;;23.10;51.80;;;;;;5045624;28;21976;-72
2023/05/12 09:20:35;;;;;;;4.55;1.70;;;22.80;50.80;;;;;;5044073;28;20109;-72
2023/05/12 09:23:15;;;;;;;5.80;1.90;;;22.60;55.00;;;;;;5036290;28;20108;-72
2023/05/12 09:25:41;;;;;;;7.60;2.00;;;22.60;59.20;;;;;;5019233;28;20470;-72
2023/05/12 09:28:07;;;;;;;5.93;1.63;;;21.60;59.50;;;;;;5045535;28;20115;-71
2023/05/12 09:30:36;;;;;;;5.03;1.35;;;20.60;64.20;;;;;;5043877;28;20055;-72
2023/05/12 09:33:10;;;;;;;2.40;1.60;;;20.70;70.10;;;;;;5046839;28;20619;-72
2023/05/12 09:35:43;;;;;;;4.15;1.50;;;20.60;70.40;;;;;;5029956;28;20032;-72
2023/05/12 09:38:10;;;;;;;6.35;2.00;;;20.20;68.00;;;;;;5047010;28;20381;-72
2023/05/12 09:40:36;;;;;;;6.75;1.98;;;20.40;75.60;;;;;;5060302;28;20442;-72
2023/05/12 09:43:06;;;;;;;2.95;1.30;;;20.30;85.20;;;;;;4352368;28;10000207;-71
2023/05/12 09:45:36;;;;;;;4.63;1.27;;;20.20;80.30;;;;;;5054576;28;20714;-71
2023/05/12 09:48:09;;;;;;;5.28;1.60;;;19.60;72.60;;;;;;5065523;23;20082;-76
2023/05/12 09:50:43;;;;;;;5.65;1.40;;;18.60;80.50;;;;;;5051805;28;20063;-76
2023/05/12 09:53:09;;;;;;;3.88;1.30;;;17.70;89.50;;;;;;5061962;28;20474;-76
2023/05/12 09:55:35;;;;;;;5.35;1.58;;;17.30;97.30;;;;;;5046102;28;20328;-76
2023/05/12 09:58:05;;;;;;;4.65;1.30;;;16.80;96.30;;;;;;5070536;28;20103;-76
2023/05/12 10:00:31;;;;;;;5.28;1.50;;;17.00;99.90;;;;;;5077250;28;20805;-76
2023/05/12 10:02:57;;;;;;;6.65;1.67;;;17.00;99.90;;;;;;5063635;28;20179;-76
2023/05/12 10:05:23;;;;;;;4.10;1.30;;;16.70;96.80;;;;;;5066886;28;20448;-76
2023/05/12 10:07:51;;;;;;;4.78;1.75;;;16.20;99.90;;;;;;5058855;28;20035;-75
2023/05/12 10:10:23;;;;;;;5.15;1.40;;;15.70;99.90;;;;;;5058281;28;20035;-77
2023/05/12 10:12:48;;;;;;;3.85;1.75;;;15.40;99.90;;;;;;5070469;28;20119;-76
2023/05/12 10:15:16;;;;;;;8.57;1.90;;;15.50;99.90;;;;;;5051678;28;20135;-76
2023/05/12 10:17:43;;;;;;;5.22;1.42;;;15.20;99.90;;;;;;5060641;28;20047;-75
2023/05/12 10:20:10;;;;;;;4.65;1.48;;;15.10;99.90;;;;;;5069532;28;20390;-76
2023/05/12 10:22:38;;;;;;;5.32;1.58;;;15.00;99.90;;;;;;5086810;28;20406;-78
2023/05/12 10:25:06;;;;;;;6.85;1.90;;;15.00;99.90;;;;;;5056641;28;20470;-77
2023/05/12 10:27:32;;;;;;;5.88;1.85;;;14.80;99.90;;;;;;5068998;28;20028;-77
2023/05/12 10:30:00;;;;;;;3.55;1.88;;;14.70;99.90;;;;;;5063564;28;20098;-77
2023/05/12 10:32:26;;;;;;;7.30;1.98;;;14.80;99.90;;;;;;5060985;28;20483;-77
2023/05/12 10:34:52;;;;;;;7.43;1.60;;;14.80;99.90;;;;;;5057717;28;20118;-80
2023/05/12 10:37:18;;;;;;;3.30;1.60;;;14.80;99.90;;;;;;5055817;28;20079;-79
2023/05/12 10:39:48;;;;;;;5.00;1.88;;;14.60;99.90;;;;;;5054213;28;20035;-78
2023/05/12 10:42:24;;;;;;;7.83;1.40;;;14.60;99.90;;;;;;5051722;28;20109;-76
2023/05/12 10:44:51;;;;;;;4.07;1.58;;;14.60;99.90;;;;;;5053929;28;20090;-78
2023/05/12 10:47:17;;;;;;;5.07;1.20;;;14.70;99.90;;;;;;5069584;28;20048;-80
2023/05/12 10:49:43;;;;;;;1.70;0.98;;;15.10;99.90;;;;;;5066967;28;20111;-78
2023/05/12 10:52:12;;;;;;;3.42;1.02;;;15.30;99.90;;;;;;5047193;28;20786;-77
2023/05/12 10:54:43;;;;;;;3.20;1.10;;;15.50;99.90;;;;;;5053610;28;20035;-78
2023/05/12 10:57:19;;;;;;;7.20;1.30;;;15.50;99.90;;;;;;5073339;28;20024;-79
2023/05/12 10:59:56;;;;;;;4.57;1.23;;;15.50;99.90;;;;;;5049957;28;20188;-78
2023/05/12 11:02:33;;;;;;;2.75;1.10;;;15.60;99.90;;;;;;5060211;28;20119;-78
2023/05/12 11:05:00;;;;;;;3.55;1.10;;;15.40;99.90;;;;;;5075632;28;20043;-77
2023/05/12 11:07:31;;;;;;;6.97;1.83;;;14.90;99.90;;;;;;5065348;28;20059;-78
2023/05/12 11:09:59;;;;;;;4.93;1.38;;;14.60;99.90;;;;;;5049097;28;20143;-77
2023/05/12 11:12:27;;;;;;;5.63;1.35;;;14.40;99.90;;;;;;5053452;28;20032;-77
2023/05/12 11:14:53;;;;;;;5.00;1.42;;;14.30;99.90;;;;;;5052648;28;20033;-78
2023/05/12 11:17:18;;;;;;;4.00;1.25;;;14.20;99.90;;;;;;5083110;28;20050;-78
2023/05/12 11:19:46;;;;;;;5.30;1.45;;;14.30;99.90;;;;;;5065629;28;20039;-78
2023/05/12 11:22:15;;;;;;;2.50;1.10;;;14.40;99.90;;;;;;5061569;28;20099;-78
2023/05/12 11:24:41;;;;;;;4.35;1.20;;;14.60;99.90;;;;;;5061847;28;20038;-78
2023/05/12 11:27:12;;;;;;;3.80;1.30;;;14.70;99.90;;;;;;5076242;28;20115;-78
2023/05/12 11:29:40;;;;;;;4.40;1.20;;;14.70;99.90;;;;;;5061287;28;20032;-78
2023/05/12 11:32:07;;;;;;;2.22;1.23;;;14.60;99.90;;;;;;4696693;28;9999621;-78
2023/05/12 11:34:32;;;;;;;4.70;1.20;;;14.80;99.90;;;;;;5045584;28;20032;-78
2023/05/12 11:36:58;;;;;;;2.25;1.30;;;14.80;99.90;;;;;;5052903;28;20401;-77
2023/05/12 11:39:26;;;;;;;3.42;1.50;;;14.70;99.90;;;;;;5053309;28;20054;-77
2023/05/12 11:41:52;;;;;;;3.53;1.55;;;14.60;99.90;;;;;;5059442;28;20062;-79
2023/05/12 11:44:19;;;;;;;1.35;0.90;;;14.50;99.90;;;;;;5058332;28;20039;-78
2023/05/12 11:46:57;;;;;;;5.05;1.20;;;14.60;99.90;;;;;;5046249;28;20036;-79
2023/05/12 11:49:24;;;;;;;1.77;1.17;;;14.60;99.90;;;;;;5042463;28;20043;-79
2023/05/12 11:51:54;;;;;;;2.53;1.17;;;14.60;99.90;;;;;;5074415;28;20588;-77
2023/05/12 11:54:21;;;;;;;3.25;1.27;;;14.80;99.90;;;;;;5055854;28;20035;-78
2023/05/12 11:56:54;;;;;;;2.60;1.10;;;14.60;99.90;;;;;;5039815;28;20032;-78
2023/05/12 11:59:26;;;;;;;2.97;1.33;;;14.50;99.90;;;;;;5035338;28;20047;-77
2023/05/12 12:01:52;;;;;;;4.25;1.25;;;14.40;99.90;;;;;;5051980;28;20516;-77
2023/05/12 12:04:18;;;;;;;2.35;1.38;;;14.30;99.90;;;;;;5044827;28;20036;-78
2023/05/12 12:06:44;;;;;;;2.80;1.30;;;14.20;99.90;;;;;;5037952;28;20127;-77
2023/05/12 12:09:11;;;;;;;2.05;1.35;;;14.10;99.90;;;;;;5063774;28;20183;-77
2023/05/12 12:11:37;;;;;;;3.28;1.58;;;14.10;99.90;;;;;;5050274;28;20948;-77
2023/05/12 12:14:02;;;;;;;2.45;1.30;;;14.10;99.90;;;;;;5048381;28;20115;-78
2023/05/12 12:16:31;;;;;;;3.55;1.08;;;14.10;99.90;;;;;;5061825;28;20042;-77
2023/05/12 12:18:57;;;;;;;2.08;0.95;;;14.20;99.90;;;;;;5060854;28;21187;-77
2023/05/12 12:21:24;;;;;;;1.48;0.93;;;14.00;99.90;;;;;;5054367;28;20028;-78
2023/05/12 12:23:50;;;;;;;1.50;1.00;;;13.70;99.90;;;;;;5046027;28;20525;-77
2023/05/12 12:26:19;;;;;;;4.55;1.20;;;13.50;99.90;;;;;;5042218;28;20994;-77
2023/05/12 12:28:46;;;;;;;4.15;1.08;;;13.40;99.90;;;;;;5055404;28;20028;-77
2023/05/12 12:31:12;;;;;;;4.20;1.20;;;13.30;99.90;;;;;;5046993;28;20036;-78
2023/05/12 12:33:38;;;;;;;1.45;0.82;;;13.20;99.90;;;;;;5051612;28;20261;-76
2023/05/12 12:36:05;;;;;;;6.65;1.10;;;13.30;99.90;;;;;;5044045;28;20020;-78
2023/05/12 12:38:31;;;;;;;3.78;1.10;;;13.20;99.90;;;;;;5041049;28;20056;-77